Time;durP1;ratioP1;P1;durP2;ratioP2;P2;SDS_P1;SDS_P2;PMS_P1;PMS_P2;Temp;Humidity;BMP_temperature;BMP_pressure;BME280_temperature;BME280_humidity;BME280_pressure;Samples;Min_cycle;Max_cycle;Signal;HPM_P1;HPM_P2
2022/01/15 00:00:52;;;;;;;11.43;2.90;;;;;;;1.69;65.17;101921.69;1648299;87;21083;-80
2022/01/15 00:03:19;;;;;;;15.18;3.08;;;;;;;1.67;65.27;101931.05;1648356;87;21529;-79
2022/01/15 00:05:45;;;;;;;16.45;3.35;;;;;;;1.64;65.36;101918.75;1648284;87;21091;-79
2022/01/15 00:08:12;;;;;;;12.13;3.30;;;;;;;1.62;65.44;101924.20;1648111;87;21102;-79
2022/01/15 00:10:39;;;;;;;13.90;3.72;;;;;;;1.63;65.51;101923.80;1648516;87;21789;-80
2022/01/15 00:13:13;;;;;;;15.00;3.60;;;;;;;1.61;65.59;101918.48;1647867;87;21090;-80
2022/01/15 00:15:39;;;;;;;11.65;3.33;;;;;;;1.61;65.68;101922.38;1647475;86;21130;-80
2022/01/15 00:18:11;;;;;;;10.78;3.02;;;;;;;1.59;65.71;101913.57;1647444;86;21127;-80
2022/01/15 00:20:34;;;;;;;9.55;3.17;;;;;;;1.57;65.76;101916.44;1647838;87;21106;-79
2022/01/15 00:23:01;;;;;;;16.42;3.40;;;;;;;1.55;65.91;101917.61;1648349;87;21774;-79
2022/01/15 00:25:29;;;;;;;11.70;3.33;;;;;;;1.53;66.01;101913.98;1648280;87;21067;-79
2022/01/15 00:27:56;;;;;;;10.58;3.08;;;;;;;1.50;66.12;101914.13;1648560;87;21667;-79
2022/01/15 00:30:23;;;;;;;14.05;3.00;;;;;;;1.50;66.20;101914.13;1648365;87;21087;-79
2022/01/15 00:32:49;;;;;;;13.13;3.20;;;;;;;1.49;66.33;101904.55;1648315;87;21122;-79
2022/01/15 00:35:16;;;;;;;11.63;3.22;;;;;;;1.48;66.36;101907.91;1648536;87;21720;-79
2022/01/15 00:37:43;;;;;;;16.15;4.25;;;;;;;1.46;66.37;101913.38;1648636;87;21534;-79
2022/01/15 00:40:13;;;;;;;12.20;3.92;;;;;;;1.44;66.51;101913.25;1648450;87;21099;-80
2022/01/15 00:42:40;;;;;;;12.85;4.08;;;;;;;1.44;66.55;101911.05;1658966;86;21102;-80
2022/01/15 00:45:12;;;;;;;15.98;4.90;;;;;;;1.40;66.64;101907.30;1660429;86;21106;-80
2022/01/15 00:47:37;;;;;;;16.42;3.77;;;;;;;1.38;66.77;101916.66;1660411;86;21795;-78
2022/01/15 00:50:06;;;;;;;14.23;4.17;;;;;;;1.38;66.92;101910.17;1660408;86;21042;-79
2022/01/15 00:52:33;;;;;;;12.85;4.95;;;;;;;1.35;66.86;101916.03;1660910;86;21635;-78
2022/01/15 00:55:00;;;;;;;14.68;4.30;;;;;;;1.33;66.92;101926.67;1660603;86;21761;-79
2022/01/15 00:57:26;;;;;;;14.05;3.60;;;;;;;1.31;67.02;101937.33;1660828;86;21109;-79
2022/01/15 00:59:53;;;;;;;16.87;3.52;;;;;;;1.32;67.05;101930.44;1660738;86;21769;-78
2022/01/15 01:02:20;;;;;;;10.23;2.87;;;;;;;1.28;67.12;101932.27;1660536;86;21089;-79
2022/01/15 01:04:46;;;;;;;13.60;3.98;;;;;;;1.27;67.24;101935.63;1660851;86;21082;-79
2022/01/15 01:07:13;;;;;;;15.72;3.12;;;;;;;1.28;67.31;101937.46;1660672;86;21496;-80
2022/01/15 01:12:45;;;;;;;11.48;2.80;;;;;;;1.25;67.47;101934.20;1660936;86;21826;-80
2022/01/15 01:20:50;;;;;;;8.63;2.67;;;;;;;1.20;67.61;101926.83;1660679;86;21105;-80
2022/01/15 01:23:01;;;;;;;14.68;3.22;;;;;;;1.19;67.76;101921.15;1657161;86;21738;-80
2022/01/15 01:25:34;;;;;;;12.90;3.47;;;;;;;1.18;67.81;101916.73;1660975;86;21719;-80
2022/01/15 01:28:03;;;;;;;8.90;2.52;;;;;;;1.15;67.82;101917.39;1659712;85;21110;-80
2022/01/15 01:30:30;;;;;;;13.60;3.10;;;;;;;1.12;67.91;101927.51;1659665;86;21097;-79
2022/01/15 01:33:04;;;;;;;10.58;2.72;;;;;;;1.12;68.03;101922.31;1660097;86;21580;-78
2022/01/15 01:36:08;;;;;;;14.05;2.60;;;;;;;1.11;68.08;101924.02;1659765;86;21149;-80
2022/01/15 01:38:08;;;;;;;12.55;2.47;;;;;;;1.10;68.17;101922.19;1653221;86;21807;-79
2022/01/15 01:40:38;;;;;;;11.75;3.05;;;;;;;1.08;68.24;101918.56;1658954;86;21635;-79
2022/01/15 01:43:03;;;;;;;9.18;2.75;;;;;;;1.11;68.31;101923.12;1658659;86;21228;-80
2022/01/15 01:45:28;;;;;;;7.53;2.20;;;;;;;1.11;68.41;101920.53;1659472;86;21627;-80
2022/01/15 01:47:53;;;;;;;11.28;2.37;;;;;;;1.09;68.40;101916.88;1660508;86;21047;-79
2022/01/15 01:50:25;;;;;;;8.40;2.08;;;;;;;1.07;68.46;101916.77;1660811;86;21824;-79
2022/01/15 01:52:54;;;;;;;9.13;2.45;;;;;;;1.07;68.55;101905.10;1660785;86;21039;-80
2022/01/15 01:55:23;;;;;;;13.08;2.55;;;;;;;1.08;68.60;101904.70;1660806;86;21137;-80
2022/01/15 01:57:51;;;;;;;12.25;2.95;;;;;;;1.08;68.60;101904.70;1661062;86;21086;-80
2022/01/15 02:00:19;;;;;;;10.48;2.30;;;;;;;1.06;68.72;101900.69;1661285;86;21378;-80
2022/01/15 02:02:48;;;;;;;8.48;2.37;;;;;;;1.04;68.71;101911.33;1661161;86;21834;-79
2022/01/15 02:05:14;;;;;;;11.83;3.05;;;;;;;1.02;68.87;101904.21;1660920;86;21187;-78
2022/01/15 02:07:44;;;;;;;10.58;2.02;;;;;;;1.01;68.82;101899.80;1660937;86;21083;-80
2022/01/15 02:10:13;;;;;;;11.12;2.02;;;;;;;1.01;68.91;101892.91;1660792;86;21129;-79
2022/01/15 02:12:40;;;;;;;13.45;2.50;;;;;;;1.01;68.96;101899.80;1660948;86;21097;-79
2022/01/15 02:15:14;;;;;;;7.15;2.52;;;;;;;0.98;68.97;101895.27;1660563;86;21774;-79
2022/01/15 02:17:42;;;;;;;8.33;2.52;;;;;;;0.97;69.09;101902.13;1660565;86;21055;-79
2022/01/15 02:23:41;;;;;;;15.13;2.90;;;;;;;0.95;69.15;101900.20;1660811;86;21087;-79
2022/01/15 02:25:26;;;;;;;14.37;2.97;;;;;;;0.92;69.20;101900.86;1649896;86;21188;-79
2022/01/15 02:27:53;;;;;;;9.40;2.83;;;;;;;0.92;69.27;101907.34;1634114;86;21791;-79
2022/01/15 02:30:20;;;;;;;8.83;2.47;;;;;;;0.91;69.33;101906.81;1660706;86;21785;-80
2022/01/15 02:32:50;;;;;;;11.20;3.15;;;;;;;0.92;69.39;101903.82;1660416;86;21086;-80
2022/01/15 02:35:15;;;;;;;8.95;2.35;;;;;;;0.93;69.46;101912.13;1660255;86;21134;-80
2022/01/15 02:37:41;;;;;;;10.28;2.75;;;;;;;0.93;69.49;101916.91;1660797;86;21105;-80
2022/01/15 02:40:10;;;;;;;14.43;2.83;;;;;;;0.87;69.51;101906.05;1660674;86;21788;-80
2022/01/15 02:42:37;;;;;;;14.18;2.85;;;;;;;0.90;69.53;101914.09;1653591;85;21090;-80
2022/01/15 02:45:08;;;;;;;9.55;2.45;;;;;;;0.88;69.57;101913.06;1648366;87;21114;-78
2022/01/15 02:50:22;;;;;;;12.85;3.33;;;;;;;0.86;69.71;101914.99;1648427;87;21138;-79
2022/01/15 02:52:49;;;;;;;12.23;2.72;;;;;;;0.85;69.83;101912.80;1648355;87;22543;-80
2022/01/15 02:55:18;;;;;;;12.45;2.92;;;;;;;0.85;69.87;101908.02;1648286;87;21111;-79
2022/01/15 02:57:44;;;;;;;13.72;2.87;;;;;;;0.86;69.95;101915.89;1648255;87;21075;-80
2022/01/15 03:00:12;;;;;;;11.63;2.92;;;;;;;0.84;69.91;101911.37;1648211;87;21096;-80
2022/01/15 03:02:39;;;;;;;13.48;2.92;;;;;;;0.84;70.02;101916.16;1648317;87;21147;-80
2022/01/15 03:05:07;;;;;;;12.05;3.12;;;;;;;0.84;70.08;101917.84;1648433;87;21261;-81
2022/01/15 03:07:36;;;;;;;13.05;3.30;;;;;;;0.84;70.07;101920.04;1648489;87;21110;-80
2022/01/15 03:10:05;;;;;;;6.62;2.65;;;;;;;0.82;70.10;101917.72;1648547;87;21688;-80
2022/01/15 03:12:31;;;;;;;9.10;2.42;;;;;;;0.82;70.23;101917.72;1648379;87;21693;-80
2022/01/15 03:15:01;;;;;;;11.85;2.95;;;;;;;0.82;70.22;101929.38;1648305;87;21086;-79
2022/01/15 03:17:26;;;;;;;9.65;3.08;;;;;;;0.78;70.19;101922.14;1648087;86;21816;-80
2022/01/15 03:19:53;;;;;;;10.13;2.85;;;;;;;0.77;70.26;101926.42;1648492;87;21094;-79
2022/01/15 03:22:21;;;;;;;9.20;2.65;;;;;;;0.65;70.32;101912.43;1648469;87;21085;-79
2022/01/15 03:24:49;;;;;;;10.88;2.70;;;;;;;0.71;70.40;101932.77;1648583;87;21059;-79
2022/01/15 03:27:16;;;;;;;9.05;3.25;;;;;;;0.71;70.46;101929.81;1648631;87;21103;-80
2022/01/15 03:29:46;;;;;;;14.28;3.05;;;;;;;0.70;70.49;101940.04;1648550;87;22615;-79
2022/01/15 03:32:14;;;;;;;11.43;3.45;;;;;;;0.69;70.51;101945.59;1648432;87;21098;-79
2022/01/15 03:34:40;;;;;;;11.63;2.77;;;;;;;0.66;70.55;101941.47;1648463;87;21115;-80
2022/01/15 03:37:07;;;;;;;13.45;3.47;;;;;;;0.63;70.62;101942.89;1648271;87;21182;-80
2022/01/15 03:39:35;;;;;;;14.45;2.65;;;;;;;0.63;70.72;101945.48;1648426;87;21130;-79
2022/01/15 03:42:03;;;;;;;12.15;2.75;;;;;;;0.62;70.75;101961.79;1648102;87;23220;-79
2022/01/15 03:44:30;;;;;;;13.30;2.80;;;;;;;0.60;70.83;101956.87;1648067;87;21588;-78
2022/01/15 03:46:56;;;;;;;10.43;2.67;;;;;;;0.60;70.86;101965.94;1648299;87;21094;-79
2022/01/15 03:49:23;;;;;;;8.93;2.10;;;;;;;0.57;70.87;101970.09;1648300;87;22253;-80
2022/01/15 03:51:50;;;;;;;10.78;2.80;;;;;;;0.53;70.84;101973.20;1648248;87;21576;-80
2022/01/15 03:54:16;;;;;;;11.22;2.98;;;;;;;0.50;70.92;101970.73;1648258;87;21793;-79
2022/01/15 03:56:43;;;;;;;11.12;2.40;;;;;;;0.47;70.98;101967.51;1648376;87;21534;-80
2022/01/15 03:59:10;;;;;;;9.23;2.12;;;;;;;0.45;71.03;101968.13;1648247;87;21059;-80
2022/01/15 04:01:36;;;;;;;12.90;2.17;;;;;;;0.42;71.12;101970.09;1648299;87;21079;-80
2022/01/15 04:04:03;;;;;;;12.47;2.22;;;;;;;0.39;71.17;101976.29;1648318;87;21099;-80
2022/01/15 04:06:31;;;;;;;12.33;2.98;;;;;;;0.37;71.23;101970.07;1648071;87;40738;-80
2022/01/15 04:08:59;;;;;;;12.65;2.45;;;;;;;0.36;71.35;101975.65;1648233;87;21114;-80
2022/01/15 04:11:25;;;;;;;11.65;2.62;;;;;;;0.36;71.43;101974.36;1648299;87;21099;-80
2022/01/15 04:13:52;;;;;;;10.68;2.70;;;;;;;0.38;71.46;101981.87;1648212;87;21159;-80
2022/01/15 04:16:19;;;;;;;12.05;3.10;;;;;;;0.38;71.51;101986.15;1648300;87;21647;-79
2022/01/15 04:18:45;;;;;;;10.68;2.30;;;;;;;0.36;71.57;101992.88;1648338;87;23037;-80
2022/01/15 04:21:14;;;;;;;12.95;2.55;;;;;;;0.33;71.54;102001.27;1648257;87;21106;-79
2022/01/15 04:23:40;;;;;;;9.63;2.30;;;;;;;0.30;71.54;102003.98;1648522;87;21102;-78
2022/01/15 04:26:07;;;;;;;8.65;2.50;;;;;;;0.29;71.67;102004.78;1648470;87;21577;-79
2022/01/15 04:28:34;;;;;;;12.55;2.47;;;;;;;0.29;71.73;102009.95;1648364;87;21091;-79
2022/01/15 04:31:07;;;;;;;12.95;2.80;;;;;;;0.28;71.71;102015.53;1648296;87;21781;-78
2022/01/15 04:33:37;;;;;;;8.13;2.37;;;;;;;0.27;71.78;102013.70;1647698;86;21578;-79
2022/01/15 04:36:05;;;;;;;11.03;2.95;;;;;;;0.25;71.75;102024.32;1648487;87;21184;-79
2022/01/15 04:38:35;;;;;;;13.13;2.75;;;;;;;0.21;71.85;102018.36;1647987;87;21099;-79
2022/01/15 04:41:00;;;;;;;11.03;2.58;;;;;;;0.20;71.90;102020.41;1648137;87;21142;-80
2022/01/15 04:43:27;;;;;;;8.30;2.55;;;;;;;0.19;71.96;102024.70;1655630;86;21836;-80
2022/01/15 04:45:54;;;;;;;12.63;2.50;;;;;;;0.18;72.03;102029.73;1660524;86;21082;-81
2022/01/15 04:48:20;;;;;;;8.85;2.42;;;;;;;0.14;72.04;102019.49;1660700;86;21122;-80
2022/01/15 04:50:47;;;;;;;10.18;2.27;;;;;;;0.13;72.11;102015.11;1660685;85;21093;-80
2022/01/15 04:53:17;;;;;;;13.72;2.60;;;;;;;0.12;72.20;102017.16;1660755;86;21547;-80
2022/01/15 04:55:44;;;;;;;16.80;4.12;;;;;;;0.10;72.21;102023.89;1660540;86;21582;-80
2022/01/15 04:58:11;;;;;;;11.60;4.50;;;;;;;0.10;72.29;102022.99;1660548;86;21070;-80
2022/01/15 05:00:37;;;;;;;34.58;10.43;;;;;;;0.07;72.26;102028.79;1660774;85;21619;-80
2022/01/15 05:03:04;;;;;;;28.30;8.70;;;;;;;0.05;72.33;102032.92;1660655;85;21090;-80
2022/01/15 05:05:31;;;;;;;21.33;7.40;;;;;;;0.04;72.37;102037.60;1660640;86;21109;-81
2022/01/15 05:07:57;;;;;;;13.18;4.42;;;;;;;0.02;72.35;102033.04;1660655;86;21817;-79
2022/01/15 05:10:27;;;;;;;14.58;3.70;;;;;;;-0.02;72.41;102039.63;1660390;86;21302;-79
2022/01/15 05:12:55;;;;;;;13.10;3.17;;;;;;;-0.04;72.44;102036.00;1660703;86;21078;-79
2022/01/15 05:15:22;;;;;;;10.35;2.42;;;;;;;-0.07;72.51;102035.75;1660156;86;21835;-79
2022/01/15 05:17:48;;;;;;;16.50;3.22;;;;;;;-0.10;72.58;102024.72;1660784;86;21105;-78
2022/01/15 05:20:17;;;;;;;11.18;2.87;;;;;;;-0.11;72.65;102029.75;1660748;86;21836;-79
2022/01/15 05:22:47;;;;;;;13.70;3.37;;;;;;;-0.13;72.72;102024.83;1660640;86;21612;-74
2022/01/15 05:25:14;;;;;;;9.90;2.45;;;;;;;-0.14;72.77;102026.91;1660701;85;21095;-75
2022/01/15 05:27:42;;;;;;;12.75;2.47;;;;;;;-0.16;72.87;102028.06;1633678;86;21083;-75
2022/01/15 05:30:10;;;;;;;10.13;2.45;;;;;;;-0.16;72.92;102034.94;1660628;86;21181;-75
2022/01/15 05:32:37;;;;;;;9.00;2.58;;;;;;;-0.17;72.92;102039.17;1660768;86;22990;-75
2022/01/15 05:35:13;;;;;;;9.80;2.37;;;;;;;-0.19;73.00;102038.13;1660329;86;21089;-75
2022/01/15 05:37:40;;;;;;;10.75;2.80;;;;;;;-0.27;73.03;102018.45;1660776;86;21122;-81
2022/01/15 05:40:08;;;;;;;9.03;2.30;;;;;;;-0.18;73.14;102033.89;1660652;86;21588;-81
2022/01/15 05:42:35;;;;;;;17.00;4.37;;;;;;;-0.19;73.17;102027.78;1659228;86;21185;-81
2022/01/15 05:45:03;;;;;;;15.80;5.12;;;;;;;-0.20;73.17;102033.36;1648425;87;21793;-82
2022/01/15 05:47:32;;;;;;;19.37;5.40;;;;;;;-0.20;73.19;102036.34;1626915;87;21087;-82
2022/01/15 05:49:58;;;;;;;15.68;3.55;;;;;;;-0.22;73.23;102040.08;1648242;87;21119;-81
2022/01/15 05:52:25;;;;;;;17.52;5.62;;;;;;;-0.24;73.21;102044.61;1648495;87;21250;-81
2022/01/15 05:54:52;;;;;;;18.17;6.80;;;;;;;-0.27;73.25;102043.92;1648383;87;21016;-81
2022/01/15 05:57:18;;;;;;;16.87;5.05;;;;;;;-0.27;73.33;102050.39;1648389;87;21720;-82
2022/01/15 05:59:45;;;;;;;10.82;3.10;;;;;;;-0.34;73.38;102039.36;1648603;87;21086;-82
2022/01/15 06:02:12;;;;;;;11.45;2.67;;;;;;;-0.28;73.42;102058.02;1648372;87;21095;-82
2022/01/15 06:04:38;;;;;;;10.58;2.58;;;;;;;-0.29;73.48;102058.41;1648565;87;21076;-81
2022/01/15 06:07:07;;;;;;;14.43;3.40;;;;;;;-0.29;73.52;102065.27;1626766;87;21102;-81
2022/01/15 06:09:33;;;;;;;14.80;3.85;;;;;;;-0.29;73.60;102062.69;1648087;87;21746;-81
2022/01/15 06:12:04;;;;;;;14.83;5.12;;;;;;;-0.28;73.68;102060.23;1648046;87;21095;-81
2022/01/15 06:14:31;;;;;;;14.00;5.53;;;;;;;-0.26;73.75;102056.11;1664827;85;21117;-80
2022/01/15 06:16:59;;;;;;;20.57;9.30;;;;;;;-0.25;73.71;102063.48;1667604;86;21058;-83
2022/01/15 06:19:27;;;;;;;21.37;9.98;;;;;;;-0.27;73.72;102060.74;1629681;86;21126;-82
2022/01/15 06:21:54;;;;;;;26.35;12.58;;;;;;;-0.26;73.76;102054.81;1600876;88;21796;-77
2022/01/15 06:24:23;;;;;;;19.35;8.70;;;;;;;-0.27;73.82;102056.86;1648965;86;21114;-77
2022/01/15 06:26:50;;;;;;;11.88;5.33;;;;;;;-0.27;73.80;102065.02;1601762;88;21135;-77
2022/01/15 06:29:17;;;;;;;13.70;4.28;;;;;;;-0.28;73.82;102065.41;1648786;86;21181;-77
2022/01/15 06:31:43;;;;;;;8.00;2.95;;;;;;;-0.29;73.87;102067.47;1601880;89;21135;-77
2022/01/15 06:34:10;;;;;;;10.32;3.83;;;;;;;-0.29;73.85;102071.74;1648517;86;21927;-77
2022/01/15 06:36:37;;;;;;;8.65;3.60;;;;;;;-0.31;73.86;102078.06;1601616;88;21618;-77
2022/01/15 06:39:09;;;;;;;9.53;3.20;;;;;;;-0.34;73.89;102073.89;1648738;86;21113;-77
2022/01/15 06:41:42;;;;;;;14.90;3.47;;;;;;;-0.32;74.01;102075.33;1601222;88;21061;-77
2022/01/15 06:44:12;;;;;;;10.60;3.55;;;;;;;-0.32;74.05;102063.69;1648529;86;21051;-77
2022/01/15 06:46:43;;;;;;;9.13;3.05;;;;;;;-0.33;74.07;102064.09;1601916;88;21878;-76
2022/01/15 06:49:10;;;;;;;17.12;3.92;;;;;;;-0.33;74.11;102065.38;1648856;86;21154;-76
2022/01/15 06:51:39;;;;;;;13.32;3.10;;;;;;;-0.32;74.17;102066.28;1601509;88;21096;-76
2022/01/15 06:54:07;;;;;;;12.93;3.20;;;;;;;-0.32;74.17;102071.09;1647554;86;21137;-75
2022/01/15 06:56:34;;;;;;;9.15;3.50;;;;;;;-0.32;74.19;102077.92;1601477;89;21594;-76
2022/01/15 06:59:03;;;;;;;12.00;3.10;;;;;;;-0.32;74.19;102087.91;1625199;86;21609;-76
2022/01/15 07:01:30;;;;;;;17.60;4.33;;;;;;;-0.30;74.32;102088.02;1580199;89;21103;-76
2022/01/15 07:03:56;;;;;;;10.50;3.00;;;;;;;-0.31;74.32;102087.13;1648798;86;21596;-77
2022/01/15 07:06:24;;;;;;;14.30;3.50;;;;;;;-0.29;74.29;102094.63;1601782;89;21108;-75
2022/01/15 07:08:52;;;;;;;15.23;4.10;;;;;;;-0.29;74.31;102091.14;1648416;86;21126;-75
2022/01/15 07:11:21;;;;;;;13.93;3.55;;;;;;;-0.26;74.37;102089.75;1601352;89;21099;-77
2022/01/15 07:13:48;;;;;;;12.73;3.87;;;;;;;-0.24;74.38;102088.20;1648382;86;21118;-77
2022/01/15 07:16:14;;;;;;;14.38;3.85;;;;;;;-0.23;74.35;102093.88;1601488;89;21752;-77
2022/01/15 07:19:06;;;;;;;13.78;4.80;;;;;;;-0.19;74.46;102098.95;1648699;86;21204;-77
2022/01/15 07:21:36;;;;;;;18.73;4.58;;;;;;;-0.17;74.39;102096.50;1628489;86;21169;-83
2022/01/15 07:24:06;;;;;;;15.35;4.15;;;;;;;-0.13;74.43;102096.94;1632021;86;21166;-83
2022/01/15 07:26:34;;;;;;;13.05;4.20;;;;;;;-0.10;74.38;102099.78;1654979;86;21181;-77
2022/01/15 07:29:01;;;;;;;18.30;5.00;;;;;;;-0.08;74.39;102102.11;1654650;86;21126;-77
2022/01/15 07:31:29;;;;;;;15.75;4.25;;;;;;;-0.05;74.38;102100.20;1654736;86;21118;-76
2022/01/15 07:34:15;;;;;;;9.23;3.87;;;;;;;-0.03;74.40;102107.72;1654741;86;21195;-77
2022/01/15 07:36:32;;;;;;;14.15;5.33;;;;;;;0.01;74.45;102111.49;1644467;86;21652;-76
2022/01/15 07:39:01;;;;;;;19.45;6.20;;;;;;;0.05;74.45;102105.81;1654582;86;21094;-77
2022/01/15 07:41:28;;;;;;;17.52;6.40;;;;;;;0.09;74.44;102113.06;1654169;86;21692;-76
2022/01/15 07:43:55;;;;;;;17.87;6.37;;;;;;;0.14;74.47;102124.36;1654628;85;21134;-77
2022/01/15 07:46:23;;;;;;;22.22;5.92;;;;;;;0.18;74.44;102126.44;1654815;85;21098;-76
2022/01/15 07:48:50;;;;;;;22.48;7.47;;;;;;;0.24;74.39;102123.48;1654797;86;22560;-77
2022/01/15 07:51:17;;;;;;;13.22;4.95;;;;;;;0.29;74.39;102120.92;1654782;86;21087;-76
2022/01/15 07:53:44;;;;;;;13.75;5.45;;;;;;;0.32;74.35;102122.86;1651811;86;21130;-75
2022/01/15 07:56:11;;;;;;;11.50;4.75;;;;;;;0.36;74.32;102128.47;1648227;87;21151;-77
2022/01/15 07:58:38;;;;;;;11.95;4.50;;;;;;;0.40;74.30;102128.35;1648372;87;21082;-78
2022/01/15 08:01:06;;;;;;;11.38;4.47;;;;;;;0.45;74.26;102128.37;1648468;87;21762;-75
2022/01/15 08:03:33;;;;;;;17.95;5.42;;;;;;;0.50;74.24;102129.66;1648395;87;21692;-73
2022/01/15 08:06:00;;;;;;;16.62;4.78;;;;;;;0.53;74.20;102124.77;1648256;87;21071;-75
2022/01/15 08:08:27;;;;;;;17.80;5.45;;;;;;;0.57;74.17;102126.84;1648293;87;21656;-75
2022/01/15 08:10:55;;;;;;;16.35;4.58;;;;;;;0.63;74.14;102128.16;1648540;87;21118;-76
2022/01/15 08:13:22;;;;;;;14.68;5.80;;;;;;;0.67;74.11;102127.64;1648379;87;21773;-76
2022/01/15 08:15:50;;;;;;;14.28;4.80;;;;;;;0.70;74.08;102130.12;1648115;87;21075;-75
2022/01/15 08:18:18;;;;;;;18.17;4.65;;;;;;;0.77;74.09;102127.69;1648385;87;21173;-80
2022/01/15 08:20:45;;;;;;;25.32;6.55;;;;;;;0.81;74.02;102121.05;1654117;85;21649;-79
2022/01/15 08:23:14;;;;;;;23.42;6.58;;;;;;;0.88;74.04;102116.55;1631418;86;21118;-79
2022/01/15 08:25:42;;;;;;;21.85;7.30;;;;;;;0.95;74.02;102120.16;1655587;85;21356;-80
2022/01/15 08:28:09;;;;;;;19.67;5.58;;;;;;;1.01;73.93;102119.78;1654885;86;21121;-80
2022/01/15 08:30:36;;;;;;;18.50;5.33;;;;;;;1.08;73.85;102131.20;1655689;85;21079;-79
2022/01/15 08:33:03;;;;;;;13.00;5.10;;;;;;;1.12;73.75;102142.34;1655571;86;21637;-80
2022/01/15 08:35:30;;;;;;;22.45;5.28;;;;;;;1.18;73.71;102146.25;1655576;86;21154;-79
2022/01/15 08:38:02;;;;;;;16.42;5.25;;;;;;;1.24;73.67;102138.61;1655615;86;22511;-79
2022/01/15 08:40:28;;;;;;;19.07;5.83;;;;;;;1.30;73.60;102139.52;1655563;86;21113;-79
2022/01/15 08:42:55;;;;;;;20.70;6.17;;;;;;;1.35;73.53;102145.62;1655477;86;21532;-79
2022/01/15 08:45:26;;;;;;;15.70;5.25;;;;;;;1.42;73.50;102144.43;1669818;85;21097;-80
2022/01/15 08:47:50;;;;;;;20.80;5.45;;;;;;;1.47;73.42;102153.91;1671706;85;21116;-79
2022/01/15 08:50:17;;;;;;;19.02;5.47;;;;;;;1.52;73.40;102157.41;1672206;85;21748;-80
2022/01/15 08:52:44;;;;;;;20.37;6.55;;;;;;;1.59;73.33;102158.81;1672485;85;21092;-80
2022/01/15 08:55:12;;;;;;;16.75;5.45;;;;;;;1.65;73.23;102158.42;1671516;84;21550;-81
2022/01/15 08:57:40;;;;;;;14.45;5.70;;;;;;;1.71;73.16;102160.26;1672994;84;21349;-80
2022/01/15 09:00:11;;;;;;;18.65;7.97;;;;;;;1.78;73.12;102155.16;1672999;84;22269;-81
2022/01/15 09:02:37;;;;;;;23.73;8.48;;;;;;;1.83;73.03;102150.88;1672892;85;21833;-80
2022/01/15 09:05:05;;;;;;;20.12;6.67;;;;;;;1.90;72.93;102151.00;1672854;85;22396;-80
2022/01/15 09:07:33;;;;;;;18.15;6.40;;;;;;;1.97;72.83;102157.59;1673032;85;21124;-80
2022/01/15 09:10:00;;;;;;;18.40;5.60;;;;;;;2.01;72.72;102167.08;1673291;84;21117;-80
2022/01/15 09:12:27;;;;;;;13.80;5.30;;;;;;;2.06;72.63;102174.83;1673260;85;22190;-80
2022/01/15 09:14:58;;;;;;;14.25;4.47;;;;;;;2.11;72.57;102174.82;1672975;85;22591;-80
2022/01/15 09:17:22;;;;;;;11.70;5.42;;;;;;;2.17;72.46;102171.81;1671895;84;21112;-80
2022/01/15 09:19:48;;;;;;;15.90;6.78;;;;;;;2.21;72.39;102176.88;1672854;85;21073;-80
2022/01/15 09:22:17;;;;;;;18.70;7.55;;;;;;;2.25;72.32;102180.23;1672564;85;21105;-80
2022/01/15 09:24:45;;;;;;;19.25;7.60;;;;;;;2.30;72.24;102186.31;1673107;84;21088;-80
2022/01/15 09:30:12;;;;;;;14.40;5.50;;;;;;;2.39;72.07;102186.17;1672920;85;21818;-80
2022/01/15 09:32:53;;;;;;;15.25;5.42;;;;;;;2.44;71.98;102186.16;1673310;85;21136;-80
2022/01/15 09:35:23;;;;;;;16.23;5.33;;;;;;;2.47;71.92;102185.08;1672410;84;21109;-80
2022/01/15 09:37:50;;;;;;;17.12;5.58;;;;;;;2.54;71.83;102194.30;1671468;84;21143;-80
2022/01/15 09:40:21;;;;;;;18.82;5.70;;;;;;;2.59;71.75;102204.69;1672674;85;21981;-80
2022/01/15 09:42:49;;;;;;;20.52;5.97;;;;;;;2.63;71.68;102210.64;1673189;85;21140;-80
2022/01/15 09:45:17;;;;;;;14.35;5.47;;;;;;;2.68;71.62;102196.69;1672804;84;21546;-80
2022/01/15 09:47:44;;;;;;;17.17;5.53;;;;;;;2.72;71.52;102191.88;1673129;85;21251;-80
2022/01/15 09:50:14;;;;;;;15.32;5.35;;;;;;;2.76;71.46;102194.70;1672569;85;21607;-80
2022/01/15 09:52:41;;;;;;;17.52;7.42;;;;;;;2.83;71.41;102197.01;1672896;84;21915;-80
2022/01/15 09:55:10;;;;;;;18.45;10.10;;;;;;;2.86;71.28;102195.97;1672922;84;21146;-80
2022/01/15 09:57:37;;;;;;;12.45;5.65;;;;;;;2.92;71.27;102186.03;1672819;85;21090;-80
2022/01/15 10:00:07;;;;;;;16.00;6.72;;;;;;;2.97;71.18;102192.52;1672922;85;21174;-80
2022/01/15 10:02:36;;;;;;;11.80;5.08;;;;;;;3.03;71.06;102193.39;1673149;84;21085;-80
2022/01/15 10:05:09;;;;;;;19.65;6.00;;;;;;;3.08;70.95;102201.17;1673018;84;21784;-80
2022/01/15 10:07:39;;;;;;;17.25;5.47;;;;;;;3.13;70.90;102201.11;1673169;85;21161;-80
2022/01/15 10:10:18;;;;;;;15.18;5.72;;;;;;;3.20;70.84;102202.52;1672831;85;21104;-80
2022/01/15 10:12:44;;;;;;;9.15;3.87;;;;;;;3.27;70.73;102202.21;1672880;85;21114;-80
2022/01/15 10:15:12;;;;;;;12.00;4.60;;;;;;;3.39;70.56;102195.73;1672953;84;21121;-80
2022/01/15 10:17:43;;;;;;;17.40;4.80;;;;;;;3.52;70.50;102194.98;1672778;85;21750;-80
2022/01/15 10:20:15;;;;;;;10.63;3.98;;;;;;;3.65;70.43;102186.92;1672598;85;21129;-80
2022/01/15 10:22:44;;;;;;;15.65;4.03;;;;;;;3.85;70.44;102190.14;1673079;85;21073;-80
2022/01/15 10:25:18;;;;;;;10.38;3.75;;;;;;;3.99;70.09;102192.05;1672862;85;21108;-80
2022/01/15 10:27:42;;;;;;;14.35;3.77;;;;;;;4.14;69.89;102184.48;1672315;85;21157;-80
2022/01/15 10:30:27;;;;;;;10.30;3.83;;;;;;;4.24;69.51;102186.98;1672824;85;21776;-80
2022/01/15 10:33:03;;;;;;;12.90;3.47;;;;;;;4.29;69.33;102190.81;1672870;84;21108;-80
2022/01/15 10:35:41;;;;;;;9.25;3.92;;;;;;;4.35;69.04;102194.67;1672939;85;21086;-80
2022/01/15 10:38:15;;;;;;;9.60;3.55;;;;;;;4.37;68.91;102185.26;1673228;85;21124;-79
2022/01/15 10:40:55;;;;;;;13.85;4.03;;;;;;;4.41;68.75;102182.08;1672809;85;21101;-80
2022/01/15 10:43:25;;;;;;;12.35;3.62;;;;;;;4.40;68.49;102193.31;1672716;85;21869;-79
2022/01/15 10:45:55;;;;;;;12.00;3.40;;;;;;;4.41;68.47;102197.34;1663998;84;21238;-79
2022/01/15 10:48:27;;;;;;;9.15;3.10;;;;;;;4.44;68.32;102211.89;1639910;86;21113;-80
2022/01/15 10:51:08;;;;;;;13.95;3.70;;;;;;;4.45;68.33;102208.91;1621211;86;21117;-80
2022/01/15 10:53:44;;;;;;;10.70;3.47;;;;;;;4.46;68.27;102201.17;1640572;87;21185;-78
2022/01/15 10:56:12;;;;;;;9.28;3.55;;;;;;;4.50;68.12;102200.10;1640419;87;21790;-79
2022/01/15 10:58:39;;;;;;;13.98;3.25;;;;;;;4.51;68.07;102199.32;1670996;85;21105;-79
2022/01/15 11:01:06;;;;;;;10.53;3.75;;;;;;;4.53;68.09;102200.34;1640504;86;21711;-79
2022/01/15 11:03:43;;;;;;;11.68;3.72;;;;;;;4.54;67.81;102196.51;1671359;85;21125;-79
2022/01/15 11:06:09;;;;;;;10.60;4.17;;;;;;;4.52;67.77;102189.38;1640929;86;21153;-79
2022/01/15 11:08:39;;;;;;;13.60;4.10;;;;;;;4.53;67.67;102189.91;1640710;87;21825;-80
2022/01/15 11:11:09;;;;;;;10.78;3.58;;;;;;;4.54;67.73;102183.88;1670581;84;21650;-80
2022/01/15 11:13:47;;;;;;;10.32;3.80;;;;;;;4.48;67.50;102184.34;1640797;86;21051;-80
2022/01/15 11:16:16;;;;;;;8.93;3.40;;;;;;;4.36;67.30;102192.59;1640631;87;21094;-80
2022/01/15 11:18:54;;;;;;;10.95;3.17;;;;;;;4.27;67.33;102208.45;1671242;85;21139;-77
2022/01/15 11:21:21;;;;;;;9.35;3.67;;;;;;;4.21;67.46;102212.81;1670670;84;21851;-78
2022/01/15 11:23:49;;;;;;;13.03;4.08;;;;;;;4.17;67.40;102220.30;1670972;84;21612;-77
2022/01/15 11:26:24;;;;;;;14.10;3.60;;;;;;;4.12;67.42;102216.44;1671036;85;21502;-77
2022/01/15 11:28:53;;;;;;;14.10;3.72;;;;;;;4.08;67.38;102217.91;1640247;87;21137;-77
2022/01/15 11:31:27;;;;;;;11.68;3.50;;;;;;;4.05;67.41;102217.66;1670924;85;21198;-77
2022/01/15 11:33:55;;;;;;;12.80;3.47;;;;;;;4.02;67.38;102209.64;1639488;87;21915;-77
2022/01/15 11:36:40;;;;;;;11.53;3.92;;;;;;;3.98;67.37;102209.80;1641853;85;21666;-76
2022/01/15 11:39:11;;;;;;;12.05;3.55;;;;;;;3.98;67.41;102204.59;1630702;86;21612;-74
2022/01/15 11:41:43;;;;;;;9.10;2.95;;;;;;;3.99;67.40;102209.40;1671146;84;21497;-79
2022/01/15 11:44:16;;;;;;;12.10;3.33;;;;;;;3.96;66.99;102214.00;1669767;85;21097;-78
2022/01/15 11:46:51;;;;;;;9.48;2.95;;;;;;;3.89;66.97;102219.53;1628342;87;21813;-78